Paulding, Ohio
Current Conditions -  °F | °C
As of 10:53 AM on Saturday 20 Dec 2014 (Local Time) from KDFI Reporting Station
Overcast Overcast  
Wind Chill: 30°   Ceiling: 3300
Heat Index: 30°   Visibility: 8mi
Dew Point: 23°   Wind: 0mph
Humidity: 75%   Direction: NA
Pressure: 30.3"   Gusts: NA
Location:  41.14°N, 84.58°W
Report Text: KDFI 201553Z AUTO 00000KT 8SM OVC033 M01/M05 A3030 RMK AO2 SLP271 T10111050 TSNO
Loading
Personal Weather Stations






























Interactive Weather Map New forecast layout! Learn more

10-Day Weather Forecast

Advertisements
Track Severe Weather on mobile